Home > Products > Valid Products > MTR

000
SAUS43 KDDC 201958
MTRP28
METAR KP28 201956Z AUTO 19012KT 08/03 A3008 RMK AO1 SLP193 T00780033





000
SAUS43 KDDC 201858
MTRP28
METAR KP28 201856Z AUTO 18008KT 08/03 A3010 RMK AO1 SLP201 T00780033





000
SAUS43 KDDC 201758
MTRP28
METAR KP28 201756Z AUTO 19010KT 07/03 A3012 RMK AO1 SLP209 T00720033
10078 20006 58005





000
SAUS43 KDDC 201658
MTRP28
METAR KP28 201656Z AUTO 21008KT 07/04 A3014 RMK AO1 SLP216 T00720039





000
SAUS43 KDDC 201557
MTRP28
METAR KP28 201556Z AUTO 19008KT 03/03 A3015 RMK AO1 SLP218 T00280028





000
SAUS43 KDDC 201457
MTRP28
METAR KP28 201456Z AUTO 18005KT 01/01 A3014 RMK AO1 SLP216 T00110011
58002





000
SAUS43 KDDC 201357
MTRP28
METAR KP28 201356Z AUTO 18005KT 01/01 A3014 RMK AO1 SLP218 T00060006





000
SAUS43 KDDC 201257
MTRP28
METAR KP28 201256Z AUTO 17005KT 01/01 A3015 RMK AO1 SLP220 T00110011





000
SAUS43 KDDC 201157
MTRP28
METAR KP28 201156Z AUTO 19005KT 01/01 A3015 RMK AO1 SLP218 T00110011
10022 20006 53003





000
SAUS43 KDDC 201057
MTRP28
METAR KP28 201056Z AUTO 16006KT 02/02 A3013 RMK AO1 SLP214 T00220022





000
SAUS43 KDDC 200957
MTRP28
METAR KP28 200956Z AUTO 19003KT 02/02 A3014 RMK AO1 SLP218 T00170017





000
SAUS43 KDDC 200857
MTRP28
METAR KP28 200856Z AUTO 16004KT 01/01 A3014 RMK AO1 SLP215 T00110011
56006





000
SAUS43 KDDC 200757
MTRP28
METAR KP28 200756Z AUTO 18005KT 01/01 A3014 RMK AO1 SLP216 T00110011





000
SAUS43 KDDC 200757
MTRP28
METAR KP28 200756Z AUTO 18005KT 01/01 A3014 RMK AO1 SLP216 T00110011





000
SAUS43 KDDC 200657
MTRP28
METAR KP28 200656Z AUTO 17004KT 01/01 A3015 RMK AO1 SLP221 T00060006





000
SAUS43 KDDC 200557
MTRP28
METAR KP28 200556Z AUTO 16005KT 01/01 A3015 RMK AO1 SLP222 T00110006
10033 20011 400390006 56002





000
SAUS43 KDDC 200457
MTRP28
METAR KP28 200456Z AUTO 17007KT 02/01 A3015 RMK AO1 SLP223 T00170011





000
SAUS43 KDDC 200357
MTRP28
METAR KP28 200356Z AUTO 18006KT 02/01 A3015 RMK AO1 SLP223 T00170011





000
SAUS43 KDDC 200357
MTRP28
METAR KP28 200356Z AUTO 18006KT 02/01 A3015 RMK AO1 SLP223 T00170011





000
SAUS43 KDDC 200257
MTRP28
METAR KP28 200256Z AUTO 17007KT 03/02 A3016 RMK AO1 SLP224 T00280017
56002





000
SAUS43 KDDC 200157
MTRP28
METAR KP28 200156Z AUTO 17005KT 03/02 A3016 RMK AO1 SLP225 T00280017





000
SAUS43 KDDC 200157
MTRP28
METAR KP28 200156Z AUTO 17005KT 03/02 A3016 RMK AO1 SLP225 T00280017





000
SAUS43 KDDC 200057
MTRP28
METAR KP28 200056Z AUTO 17006KT 03/02 A3016 RMK AO1 SLP224 T00330017





000
SAUS43 KDDC 192357
MTRP28
METAR KP28 192356Z AUTO 18005KT 03/02 A3017 RMK AO1 SLP226 T00330017
10039 20017 53003





000
SAUS43 KDDC 192257
MTRP28
METAR KP28 192256Z AUTO 19004KT 04/02 A3016 RMK AO1 SLP224 T00390017





000
SAUS43 KDDC 192157
MTRP28
METAR KP28 192156Z AUTO 18006KT 04/01 A3015 RMK AO1 SLP221 T00390011





000
SAUS43 KDDC 192057
MTRP28
METAR KP28 192056Z AUTO 19006KT 03/01 A3016 RMK AO1 SLP223 T00330011
56020





000
SAUS43 KDDC 191957
MTRP28
METAR KP28 191956Z AUTO 21006KT 03/01 A3017 RMK AO1 SLP229 T00330011





000
SAUS43 KDDC 191957
MTRP28
METAR KP28 191956Z AUTO 21006KT 03/01 A3017 RMK AO1 SLP229 T00330011





000
SAUS43 KDDC 191857
MTRP28
METAR KP28 191856Z AUTO 22004KT 02/01 A3020 RMK AO1 SLP237 T00220006





000
SAUS43 KDDC 191757
MTRP28
METAR KP28 191756Z AUTO 20003KT 02/01 A3022 RMK AO1 SLP245 T00170006
10022 20006 58005





000
SAUS43 KDDC 191657
MTRP28
METAR KP28 191656Z AUTO 17005KT 01/01 A3024 RMK AO1 SLP254 T00110006





000
SAUS43 KDDC 191557
MTRP28
METAR KP28 191556Z AUTO 17006KT 01/00 A3025 RMK AO1 SLP255 T00060000





000
SAUS43 KDDC 191457
MTRP28
METAR KP28 191456Z AUTO 16006KT 01/00 A3023 RMK AO1 SLP251 T00060000
51019





000
SAUS43 KDDC 191357
MTRP28
METAR KP28 191356Z AUTO 16005KT 01/00 A3023 RMK AO1 SLP248 T00060000





000
SAUS43 KDDC 191257
MTRP28
METAR KP28 191256Z AUTO 16004KT 01/00 A3020 RMK AO1 SLP241 T00060000





000
SAUS43 KDDC 191157
MTRP28
METAR KP28 191156Z AUTO 00000KT 01/00 A3018 RMK AO1 SLP230 T00060000
10011 20006 55013





000
SAUS43 KDDC 191057
MTRP28
METAR KP28 191056Z AUTO 00000KT 01/00 A3017 RMK AO1 SLP228 T00060000





000
SAUS43 KDDC 190957
MTRP28
METAR KP28 190956Z AUTO 00000KT 01/00 A3019 RMK AO1 SLP234 T00060000





000
SAUS43 KDDC 190957
MTRP28
METAR KP28 190956Z AUTO 00000KT 01/00 A3019 RMK AO1 SLP234 T00060000





000
SAUS43 KDDC 190857
MTRP28
METAR KP28 190856Z AUTO 00000KT 01/M01 A3022 RMK AO1 SLP243
T00111006 58002





000
SAUS43 KDDC 190758
MTRP28
METAR KP28 190756Z AUTO 00000KT 01/M01 A3022 RMK AO1 SLP245
T00111006





000
SAUS43 KDDC 190657
MTRP28
METAR KP28 190656Z AUTO 00000KT 01/M01 A3023 RMK AO1 SLP247
T00111006





000
SAUS43 KDDC 190557
MTRP28
METAR KP28 190556Z AUTO 00000KT 01/M01 A3022 RMK AO1 SLP247
T00111006 10022 20011 400281006 52002





000
SAUS43 KDDC 190457
MTRP28
METAR KP28 190456Z AUTO 00000KT 01/M01 A3022 RMK AO1 SLP245
T00111006





000
SAUS43 KDDC 190357
MTRP28
METAR KP28 190356Z AUTO 12003KT 01/M01 A3022 RMK AO1 SLP248
T00111006





000
SAUS43 KDDC 190357
MTRP28
METAR KP28 190356Z AUTO 12003KT 01/M01 A3022 RMK AO1 SLP248
T00111006





000
SAUS43 KDDC 190257
MTRP28
METAR KP28 190256Z AUTO 14004KT 01/M01 A3022 RMK AO1 SLP246
T00111011 51014





000
SAUS43 KDDC 190157
MTRP28
METAR KP28 190156Z AUTO 08004KT 02/M01 A3021 RMK AO1 SLP242
T00171011





000
SAUS43 KDDC 190157
MTRP28
METAR KP28 190156Z AUTO 08004KT 02/M01 A3021 RMK AO1 SLP242
T00171011





000
SAUS43 KDDC 190058
MTRP28
METAR KP28 190056Z AUTO 06005KT 02/M01 A3018 RMK AO1 SLP234
T00171006





000
SAUS43 KDDC 182357
MTRP28
METAR KP28 182356Z AUTO 03004KT 02/M01 A3017 RMK AO1 SLP230
T00221006 10028 20011 51013





000
SAUS43 KDDC 182258
MTRP28
METAR KP28 182256Z AUTO 04004KT 02/M01 A3016 RMK AO1 SLP226
T00221006





000
SAUS43 KDDC 182157
MTRP28
METAR KP28 182156Z AUTO 35005KT 02/00 A3016 RMK AO1 SLP225 T00220000





000
SAUS43 KDDC 182058
MTRP28
METAR KP28 182056Z AUTO 01006KT 03/00 A3013 RMK AO1 SLP217 T00280000
58015





000
SAUS43 KDDC 181957
MTRP28
METAR KP28 181956Z AUTO 31005KT 02/01 A3015 RMK AO1 SLP222 T00220006





000
SAUS43 KDDC 181857
MTRP28
METAR KP28 181856Z AUTO 35003KT 02/00 A3017 RMK AO1 SLP229 T00170000





000
SAUS43 KDDC 181757
MTRP28
METAR KP28 181756Z AUTO 03003KT 01/00 A3018 RMK AO1 SLP234 T00110000
10011 21006 50005





000
SAUS43 KDDC 181657
MTRP28
METAR KP28 181656Z AUTO 00000KT 01/01 A3019 RMK AO1 SLP237 T00060006





000
SAUS43 KDDC 181557
MTRP28
METAR KP28 181556Z AUTO 01004KT 00/00 A3018 RMK AO1 SLP235 T00000000





000
SAUS43 KDDC 181457
MTRP28
METAR KP28 181456Z AUTO 07003KT M01/M01 A3017 RMK AO1 SLP229
T10061006 51016





000
SAUS43 KDDC 181358
MTRP28
METAR KP28 181356Z AUTO 05004KT M01/M01 A3015 RMK AO1 SLP223
T10061006





000
SAUS43 KDDC 181358
MTRP28
METAR KP28 181356Z AUTO 05004KT M01/M01 A3015 RMK AO1 SLP223
T10061006





000
SAUS43 KDDC 181257
MTRP28
METAR KP28 181256Z AUTO 06003KT 00/00 A3014 RMK AO1 SLP219 T00000000





000
SAUS43 KDDC 181257
MTRP28
METAR KP28 181256Z AUTO 06003KT 00/00 A3014 RMK AO1 SLP219 T00000000





000
SAUS43 KDDC 181157
MTRP28
METAR KP28 181156Z AUTO 09004KT M01/M01 A3012 RMK AO1 SLP212 60002
70015 T10061006 11006 21006 53001





000
SAUS43 KDDC 181157
MTRP28
METAR KP28 181156Z AUTO 09004KT M01/M01 A3012 RMK AO1 SLP212 60002
70015 T10061006 11006 21006 53001





000
SAUS43 KDDC 181057
MTRP28
METAR KP28 181056Z AUTO 08005KT M01/M01 A3010 RMK AO1 SLP207 P0001
T10061006





000
SAUS43 KDDC 181057
MTRP28
METAR KP28 181056Z AUTO 08005KT M01/M01 A3010 RMK AO1 SLP207 P0001
T10061006





000
SAUS43 KDDC 180958
MTRP28
METAR KP28 180956Z AUTO 10003KT M01/M01 A3011 RMK AO1 SLP209
T10061006





000
SAUS43 KDDC 180857
MTRP28
METAR KP28 180856Z AUTO 10003KT M01/M01 A3011 RMK AO1 SLP210 60001
T10061006 58005





000
SAUS43 KDDC 180857
MTRP28
METAR KP28 180856Z AUTO 10003KT M01/M01 A3011 RMK AO1 SLP210 60001
T10061006 58005





000
SAUS43 KDDC 180757
MTRP28
METAR KP28 180756Z AUTO 11003KT M01/M01 A3012 RMK AO1 SLP212 P0001
T10061006





000
SAUS43 KDDC 180757
MTRP28
METAR KP28 180756Z AUTO 11003KT M01/M01 A3012 RMK AO1 SLP212 P0001
T10061006





000
SAUS43 KDDC 180657
MTRP28
METAR KP28 180656Z AUTO 10004KT M01/M01 A3012 RMK AO1 SLP214
T10061006





000
SAUS43 KDDC 180557
MTRP28
METAR KP28 180556Z AUTO 10006KT M01/M01 A3013 RMK AO1 SLP215 P0003
60009 T10061006 11006 21006 400111006 56005





000
SAUS43 KDDC 180457
MTRP28
METAR KP28 180456Z AUTO 11007KT M01/M01 A3013 RMK AO1 SLP216 P0001
T10061006





000
SAUS43 KDDC 180357
MTRP28
METAR KP28 180356Z AUTO 11005KT M01/M01 A3012 RMK AO1 SLP214 P0002
T10061006





000
SAUS43 KDDC 180257
MTRP28
METAR KP28 180256Z AUTO 11005KT M01/M01 A3014 RMK AO1 SLP221 P0001
60003 T10061011 53007





000
SAUS43 KDDC 180157
MTRP28
METAR KP28 180156Z AUTO 11004KT M01/M01 A3013 RMK AO1 SLP218
T10061011





000
SAUS43 KDDC 180157
MTRP28
METAR KP28 180156Z AUTO 11004KT M01/M01 A3013 RMK AO1 SLP218
T10061011





000
SAUS43 KDDC 180057
MTRP28
METAR KP28 180056Z AUTO 11006KT M01/M01 A3012 RMK AO1 SLP215 P0002
T10061011





000
SAUS43 KDDC 172357
MTRP28
METAR KP28 172356Z AUTO 11008KT M01/M01 A3012 RMK AO1 SLP214 P0002
60004 T10061011 10011 21006 51006





000
SAUS43 KDDC 172257
MTRP28
METAR KP28 172256Z AUTO 12007KT 00/M01 A3012 RMK AO1 SLP211
T00001011





000
SAUS43 KDDC 172157
MTRP28
METAR KP28 172156Z AUTO 11009KT 00/M01 A3012 RMK AO1 SLP211
T00001011





000
SAUS43 KDDC 172157
MTRP28
METAR KP28 172156Z AUTO 11009KT 00/M01 A3012 RMK AO1 SLP211
T00001011





000
SAUS43 KDDC 172057
MTRP28
METAR KP28 172056Z AUTO 12006G17KT 00/M02 A3010 RMK AO1 SLP207 P0002
60002 T00001017 58026





    US Dept of Commerce
    National Oceanic and Atmospheric Administration
    National Weather Service
    1325 East West Highway
    Silver Spring, MD 20910
    Page Author: NWS Internet Services Team
Disclaimer
Information Quality
Credits
Glossary
Privacy Policy
Freedom of Information Act (FOIA)
About Us
Career Opportunities